Norwegian Crown — C6II4 — position and weather

sailwx.info

Track history (hours):
 
Tides and Currents Weather Stations Pressure Air Temp Water Temp Dewpoint Dewpoint Depression Visibility Wind Speed Wind Dir Waves Ship Positions

Norwegian Crown

Operator: Norwegian Cruise Line

Last reported at 2018-Apr-20 06:25 UTC. Time now 2018-Apr-20 06:31 UTC.
Position N 50°53' W 001°24'.

Type: Ship. MMSI: 308785000.

Date/timePositionNaut miles runAvg speedWind from/ knotsBaromVisibWave heightAir tempDewpointWater temp
2018-Apr-20 06:25N 50°53' W 001°24'0 0.0
2018-Apr-20 05:58N 50°53' W 001°24'0 0.0
2018-Apr-20 05:28N 50°53' W 001°24'0 0.0
2018-Apr-20 05:00N 50°53' W 001°24'3 5.7
2018-Apr-20 04:30N 50°51' W 001°21'4 7.8
2018-Apr-20 04:00N 50°47' W 001°19'713.6
2018-Apr-20 03:31N 50°46' W 001°08'815.8
2018-Apr-20 03:01N 50°41' W 000°58'611.2
2018-Apr-20 02:30N 50°36' W 000°58'611.8
2018-Apr-20 02:00N 50°30' W 001°03'612.2
2018-Apr-20 01:30N 50°28' W 001°11'611.9
2018-Apr-20 01:00N 50°26' W 001°20'612.4
2018-Apr-20 00:30N 50°24' W 001°30'612.9
2018-Apr-20 00:00N 50°22' W 001°39'713.7
2018-Apr-19 23:30N 50°21' W 001°50'917.5
2018-Apr-19 23:00N 50°18' W 002°03'918.8
2018-Apr-19 22:30N 50°16' W 002°17'1118.1
2018-Apr-19 21:55N 50°13' W 002°33'717.8
2018-Apr-19 21:30N 50°11' W 002°44'917.6
2018-Apr-19 21:00N 50°08' W 002°57'917.3
2018-Apr-19 20:30N 50°06' W 003°10'816.8
2018-Apr-19 20:00N 50°02' W 003°22'816.9
2018-Apr-19 19:30N 49°56' W 003°32'916.6
2018-Apr-19 18:59N 49°51' W 003°41'1216.7
2018-Apr-19 18:17N 49°43' W 003°56'2215.7
2018-Apr-19 16:53N 49°27' W 004°18'3015.0
2018-Apr-19 14:53N 49°07' W 004°52'1413.9
2018-Apr-19 13:53N 48°58' W 005°08'2513.0
2018-Apr-19 11:59N 48°43' W 005°38'613.6
2018-Apr-19 11:30N 48°37' W 005°42'713.6
2018-Apr-19 11:00N 48°31' W 005°47'713.6
2018-Apr-19 10:29N 48°25' W 005°52'713.8
2018-Apr-19 10:01N 48°19' W 005°57'814.1
2018-Apr-19 09:27N 48°12' W 006°02'614.5
2018-Apr-19 09:00N 48°06' W 006°07'1714.8
2018-Apr-19 07:50N 47°51' W 006°20'1215.4
2018-Apr-19 07:04N 47°41' W 006°28'215.7
2018-Apr-19 06:56N 47°39' W 006°30'44715.4
2018-Apr-18 01:53N 40°35' W 009°48'615.2
2018-Apr-18 01:30N 40°30' W 009°48'815.0
2018-Apr-18 01:00N 40°22' W 009°48'715.1
2018-Apr-18 00:30N 40°15' W 009°50'815.3
2018-Apr-18 00:00N 40°07' W 009°52'1215.2
2018-Apr-17 23:15N 39°56' W 009°51'415.2
2018-Apr-17 22:59N 39°52' W 009°51'715.1
2018-Apr-17 22:30N 39°44' W 009°51'815.3
2018-Apr-17 22:01N 39°37' W 009°51'815.2
2018-Apr-17 21:30N 39°29' W 009°51'815.0
2018-Apr-17 21:00N 39°22' W 009°51'714.5
2018-Apr-17 20:30N 39°14' W 009°51'714.3
2018-Apr-17 20:01N 39°07' W 009°50'713.5
2018-Apr-17 19:30N 39°01' W 009°47'713.5
2018-Apr-17 19:00N 38°54' W 009°45'713.6
2018-Apr-17 18:30N 38°48' W 009°43'714.0
2018-Apr-17 18:00N 38°41' W 009°41'612.2
2018-Apr-17 17:30N 38°38' W 009°34'713.5
2018-Apr-17 17:00N 38°37' W 009°26'612.8
2018-Apr-17 16:31N 38°40' W 009°19'612.1
2018-Apr-17 15:59N 38°41' W 009°11'3 5.8
2018-Apr-17 15:27N 38°43' W 009°07'0 0.0
2018-Apr-17 15:00N 38°43' W 009°07'0 0.0
2018-Apr-17 14:27N 38°43' W 009°07'0 0.0
2018-Apr-17 14:00N 38°43' W 009°07'0 0.0
2018-Apr-17 13:30N 38°43' W 009°07'0 0.0
2018-Apr-17 13:00N 38°43' W 009°07'0 0.0
2018-Apr-17 12:30N 38°43' W 009°07'0 0.0
2018-Apr-17 12:00N 38°43' W 009°07'0 0.0
2018-Apr-17 11:30N 38°43' W 009°07'0 0.0
2018-Apr-17 11:00N 38°43' W 009°07'0 0.0
2018-Apr-17 10:30N 38°43' W 009°07'0 0.0
2018-Apr-17 09:57N 38°43' W 009°07'0 0.0
2018-Apr-17 09:30N 38°43' W 009°07'0 0.0
2018-Apr-17 09:00N 38°43' W 009°07'0 0.0
2018-Apr-17 08:30N 38°43' W 009°07'0 0.0
2018-Apr-17 08:00N 38°43' W 009°07'0 0.0
2018-Apr-17 07:30N 38°43' W 009°07'1 2.1
2018-Apr-17 07:00N 38°42' W 009°08'5 9.1
2018-Apr-17 06:27N 38°41' W 009°15'3 6.7
2018-Apr-17 06:00N 38°40' W 009°18'611.2
2018-Apr-17 05:31N 38°36' W 009°23'612.2
2018-Apr-17 05:00N 38°30' W 009°23'714.1
2018-Apr-17 04:30N 38°23' W 009°24'815.4
2018-Apr-17 04:00N 38°15' W 009°25'815.6
2018-Apr-17 03:30N 38°07' W 009°24'815.5
2018-Apr-17 03:00N 37°60' W 009°24'815.5
2018-Apr-17 02:30N 37°52' W 009°24'815.7
2018-Apr-17 02:00N 37°44' W 009°23'815.8
2018-Apr-17 01:30N 37°36' W 009°23'815.5
2018-Apr-17 00:57N 37°28' W 009°22'2815.3
2018-Apr-16 23:07N 36°60' W 009°19'614.7
2018-Apr-16 22:42N 36°54' W 009°18'314.2
2018-Apr-16 22:28N 36°51' W 009°15'714.6
2018-Apr-16 22:00N 36°46' W 009°09'814.5
2018-Apr-16 21:28N 36°43' W 009°00'714.4
2018-Apr-16 21:00N 36°42' W 008°52'814.6
2018-Apr-16 20:29N 36°42' W 008°43'714.8
2018-Apr-16 20:00N 36°41' W 008°34'714.8
2018-Apr-16 19:30N 36°41' W 008°25'714.8
2018-Apr-16 19:00N 36°40' W 008°16'815.0
2018-Apr-16 18:28N 36°40' W 008°06'121 6.5
2018-Apr-15 23:53N 35°58' W 005°45'615.7
2018-Apr-15 23:30N 35°58' W 005°38'714.2
2018-Apr-15 23:00N 35°60' W 005°29'713.4
2018-Apr-15 22:30N 36°01' W 005°21'713.8
2018-Apr-15 21:59N 36°03' W 005°12'714.2
2018-Apr-15 21:28N 36°04' W 005°03'19214.1
2018-Apr-15 07:48N 36°56' W 001°13'515.7
2018-Apr-15 07:29N 36°59' W 001°09'915.8
2018-Apr-15 06:55N 37°04' W 000°59'715.7
2018-Apr-15 06:29N 37°07' W 000°52'815.5
2018-Apr-15 05:57N 37°12' W 000°43'715.4
2018-Apr-15 05:29N 37°16' W 000°35'815.4
2018-Apr-15 04:59N 37°20' W 000°27'715.9
2018-Apr-15 04:30N 37°24' W 000°19'815.9
2018-Apr-15 04:00N 37°28' W 000°11'815.8
2018-Apr-15 03:30N 37°33' W 000°03'15115.6
2018-Apr-14 17:53N 39°11' E 002°23'616.5
2018-Apr-14 17:30N 39°16' E 002°27'816.5
2018-Apr-14 17:00N 39°23' E 002°33'816.3
2018-Apr-14 16:30N 39°30' E 002°37'3 5.5
2018-Apr-14 15:59N 39°33' E 002°38'0 0.0
2018-Apr-14 15:29N 39°33' E 002°38'0 0.0
2018-Apr-14 14:59N 39°33' E 002°38'0 0.0
2018-Apr-14 14:29N 39°33' E 002°38'0 0.0
2018-Apr-14 13:59N 39°33' E 002°38'0 0.0
2018-Apr-14 13:29N 39°33' E 002°38'0 0.0
2018-Apr-14 12:59N 39°33' E 002°38'0 0.0
2018-Apr-14 12:29N 39°33' E 002°38'0 0.0
2018-Apr-14 11:59N 39°33' E 002°38'0 0.0
2018-Apr-14 11:29N 39°33' E 002°38'0 0.0
2018-Apr-14 10:59N 39°33' E 002°38'0 0.0
2018-Apr-14 10:29N 39°33' E 002°38'0 0.0
2018-Apr-14 09:59N 39°33' E 002°38'0 0.0
2018-Apr-14 09:29N 39°33' E 002°38'0 0.0
2018-Apr-14 08:59N 39°33' E 002°38'0 0.0
2018-Apr-14 08:29N 39°33' E 002°38'0 0.0
2018-Apr-14 07:59N 39°33' E 002°38'0 0.0
2018-Apr-14 07:29N 39°33' E 002°38'0 0.0
2018-Apr-14 06:59N 39°33' E 002°38'0 0.0
2018-Apr-14 06:29N 39°33' E 002°38'0 0.0
2018-Apr-14 06:00N 39°33' E 002°38'0 0.0
2018-Apr-14 05:30N 39°33' E 002°38'1 2.7
2018-Apr-14 05:00N 39°32' E 002°39'713.2
2018-Apr-14 04:30N 39°25' E 002°39'611.8
2018-Apr-14 04:00N 39°20' E 002°41'611.3
2018-Apr-14 03:30N 39°14' E 002°44'611.5
2018-Apr-14 02:59N 39°10' E 002°49'511.1
2018-Apr-14 02:30N 39°05' E 002°53'511.1
2018-Apr-14 02:00N 39°03' E 002°59'611.9
2018-Apr-14 01:31N 39°02' E 003°07'611.7
2018-Apr-14 01:00N 39°02' E 003°14'24514.6
2018-Apr-13 08:12N 38°35' E 008°27'315.3
2018-Apr-13 07:59N 38°35' E 008°31'17215.1
2018-Apr-12 20:35N 38°25' E 012°11'3015.6
2018-Apr-12 18:40N 38°24' E 012°49'215.5
2018-Apr-12 18:30N 38°24' E 012°52'815.4
2018-Apr-12 18:00N 38°22' E 013°02'815.4
2018-Apr-12 17:30N 38°20' E 013°12'815.0
2018-Apr-12 17:00N 38°17' E 013°20'815.1
2018-Apr-12 16:30N 38°11' E 013°26'4 8.5
2018-Apr-12 16:00N 38°08' E 013°22'0 0.4
2018-Apr-12 15:28N 38°08' E 013°22'0 0.0
2018-Apr-12 14:58N 38°08' E 013°22'0 0.0
2018-Apr-12 14:28N 38°08' E 013°22'0 0.0
2018-Apr-12 13:58N 38°08' E 013°22'0 0.0
2018-Apr-12 13:28N 38°08' E 013°22'0 0.0
2018-Apr-12 12:58N 38°08' E 013°22'0 0.0
2018-Apr-12 12:28N 38°08' E 013°22'0 0.0
2018-Apr-12 11:58N 38°08' E 013°22'0 0.0
2018-Apr-12 11:28N 38°08' E 013°22'0 0.0
2018-Apr-12 10:58N 38°08' E 013°22'0 0.0
2018-Apr-12 10:28N 38°08' E 013°22'0 0.0
2018-Apr-12 09:58N 38°08' E 013°22'0 0.0
2018-Apr-12 09:28N 38°08' E 013°22'0 0.0
2018-Apr-12 08:58N 38°08' E 013°22'0 0.0
2018-Apr-12 08:28N 38°08' E 013°22'0 0.5
2018-Apr-12 08:01N 38°08' E 013°22'3 5.7
2018-Apr-12 07:31N 38°10' E 013°24'815.4
2018-Apr-12 07:01N 38°17' E 013°20'816.2
2018-Apr-12 06:30N 38°23' E 013°13'816.8
2018-Apr-12 06:00N 38°28' E 013°05'817.0
2018-Apr-12 05:31N 38°34' E 012°57'916.6
2018-Apr-12 05:00N 38°40' E 012°49'916.6
2018-Apr-12 04:28N 38°46' E 012°41'  
Track history (hours):
 
Tides and Currents Weather Stations Pressure Air Temp Water Temp Dewpoint Dewpoint Depression Visibility Wind Speed Wind Dir Waves Ship Positions

Norwegian Crown

Operator: Norwegian Cruise Line

Last reported at 2018-Apr-20 06:25 UTC. Time now 2018-Apr-20 06:32 UTC.
Position N 50°53' W 001°24'.

Type: Ship. MMSI: 308785000.

Date/timePositionNaut miles runAvg speedWind from/ knotsBaromVisibWave heightAir tempDewpointWater temp
2018-Apr-20 06:25N 50°53' W 001°24'0 0.0
2018-Apr-20 05:58N 50°53' W 001°24'0 0.0
2018-Apr-20 05:28N 50°53' W 001°24'0 0.0
2018-Apr-20 05:00N 50°53' W 001°24'3 5.7
2018-Apr-20 04:30N 50°51' W 001°21'4 7.8
2018-Apr-20 04:00N 50°47' W 001°19'713.6
2018-Apr-20 03:31N 50°46' W 001°08'815.8
2018-Apr-20 03:01N 50°41' W 000°58'611.2
2018-Apr-20 02:30N 50°36' W 000°58'611.8
2018-Apr-20 02:00N 50°30' W 001°03'612.2
2018-Apr-20 01:30N 50°28' W 001°11'611.9
2018-Apr-20 01:00N 50°26' W 001°20'612.4
2018-Apr-20 00:30N 50°24' W 001°30'612.9
2018-Apr-20 00:00N 50°22' W 001°39'713.7
2018-Apr-19 23:30N 50°21' W 001°50'917.5
2018-Apr-19 23:00N 50°18' W 002°03'918.8
2018-Apr-19 22:30N 50°16' W 002°17'1118.1
2018-Apr-19 21:55N 50°13' W 002°33'717.8
2018-Apr-19 21:30N 50°11' W 002°44'917.6
2018-Apr-19 21:00N 50°08' W 002°57'917.3
2018-Apr-19 20:30N 50°06' W 003°10'816.8
2018-Apr-19 20:00N 50°02' W 003°22'816.9
2018-Apr-19 19:30N 49°56' W 003°32'916.6
2018-Apr-19 18:59N 49°51' W 003°41'1216.7
2018-Apr-19 18:17N 49°43' W 003°56'2215.7
2018-Apr-19 16:53N 49°27' W 004°18'3015.0
2018-Apr-19 14:53N 49°07' W 004°52'1413.9
2018-Apr-19 13:53N 48°58' W 005°08'2513.0
2018-Apr-19 11:59N 48°43' W 005°38'613.6
2018-Apr-19 11:30N 48°37' W 005°42'713.6
2018-Apr-19 11:00N 48°31' W 005°47'713.6
2018-Apr-19 10:29N 48°25' W 005°52'713.8
2018-Apr-19 10:01N 48°19' W 005°57'814.1
2018-Apr-19 09:27N 48°12' W 006°02'614.5
2018-Apr-19 09:00N 48°06' W 006°07'1714.8
2018-Apr-19 07:50N 47°51' W 006°20'1215.4
2018-Apr-19 07:04N 47°41' W 006°28'215.7
2018-Apr-19 06:56N 47°39' W 006°30'44715.4
2018-Apr-18 01:53N 40°35' W 009°48'615.2
2018-Apr-18 01:30N 40°30' W 009°48'815.0
2018-Apr-18 01:00N 40°22' W 009°48'715.1
2018-Apr-18 00:30N 40°15' W 009°50'815.3
2018-Apr-18 00:00N 40°07' W 009°52'1215.2
2018-Apr-17 23:15N 39°56' W 009°51'415.2
2018-Apr-17 22:59N 39°52' W 009°51'715.1
2018-Apr-17 22:30N 39°44' W 009°51'815.3
2018-Apr-17 22:01N 39°37' W 009°51'815.2
2018-Apr-17 21:30N 39°29' W 009°51'815.0
2018-Apr-17 21:00N 39°22' W 009°51'714.5
2018-Apr-17 20:30N 39°14' W 009°51'714.3
2018-Apr-17 20:01N 39°07' W 009°50'713.5
2018-Apr-17 19:30N 39°01' W 009°47'713.5
2018-Apr-17 19:00N 38°54' W 009°45'713.6
2018-Apr-17 18:30N 38°48' W 009°43'714.0
2018-Apr-17 18:00N 38°41' W 009°41'612.2
2018-Apr-17 17:30N 38°38' W 009°34'713.5
2018-Apr-17 17:00N 38°37' W 009°26'612.8
2018-Apr-17 16:31N 38°40' W 009°19'612.1
2018-Apr-17 15:59N 38°41' W 009°11'3 5.8
2018-Apr-17 15:27N 38°43' W 009°07'0 0.0
2018-Apr-17 15:00N 38°43' W 009°07'0 0.0
2018-Apr-17 14:27N 38°43' W 009°07'0 0.0
2018-Apr-17 14:00N 38°43' W 009°07'0 0.0
2018-Apr-17 13:30N 38°43' W 009°07'0 0.0
2018-Apr-17 13:00N 38°43' W 009°07'0 0.0
2018-Apr-17 12:30N 38°43' W 009°07'0 0.0
2018-Apr-17 12:00N 38°43' W 009°07'0 0.0
2018-Apr-17 11:30N 38°43' W 009°07'0 0.0
2018-Apr-17 11:00N 38°43' W 009°07'0 0.0
2018-Apr-17 10:30N 38°43' W 009°07'0 0.0
2018-Apr-17 09:57N 38°43' W 009°07'0 0.0
2018-Apr-17 09:30N 38°43' W 009°07'0 0.0
2018-Apr-17 09:00N 38°43' W 009°07'0 0.0
2018-Apr-17 08:30N 38°43' W 009°07'0 0.0
2018-Apr-17 08:00N 38°43' W 009°07'0 0.0
2018-Apr-17 07:30N 38°43' W 009°07'1 2.1
2018-Apr-17 07:00N 38°42' W 009°08'5 9.1
2018-Apr-17 06:27N 38°41' W 009°15'3 6.7
2018-Apr-17 06:00N 38°40' W 009°18'611.2
2018-Apr-17 05:31N 38°36' W 009°23'612.2
2018-Apr-17 05:00N 38°30' W 009°23'714.1
2018-Apr-17 04:30N 38°23' W 009°24'815.4
2018-Apr-17 04:00N 38°15' W 009°25'815.6
2018-Apr-17 03:30N 38°07' W 009°24'815.5
2018-Apr-17 03:00N 37°60' W 009°24'815.5
2018-Apr-17 02:30N 37°52' W 009°24'815.7
2018-Apr-17 02:00N 37°44' W 009°23'815.8
2018-Apr-17 01:30N 37°36' W 009°23'815.5
2018-Apr-17 00:57N 37°28' W 009°22'2815.3
2018-Apr-16 23:07N 36°60' W 009°19'614.7
2018-Apr-16 22:42N 36°54' W 009°18'314.2
2018-Apr-16 22:28N 36°51' W 009°15'714.6
2018-Apr-16 22:00N 36°46' W 009°09'814.5
2018-Apr-16 21:28N 36°43' W 009°00'714.4
2018-Apr-16 21:00N 36°42' W 008°52'814.6
2018-Apr-16 20:29N 36°42' W 008°43'714.8
2018-Apr-16 20:00N 36°41' W 008°34'714.8
2018-Apr-16 19:30N 36°41' W 008°25'714.8
2018-Apr-16 19:00N 36°40' W 008°16'815.0
2018-Apr-16 18:28N 36°40' W 008°06'121 6.5
2018-Apr-15 23:53N 35°58' W 005°45'615.7
2018-Apr-15 23:30N 35°58' W 005°38'714.2
2018-Apr-15 23:00N 35°60' W 005°29'713.4
2018-Apr-15 22:30N 36°01' W 005°21'713.8
2018-Apr-15 21:59N 36°03' W 005°12'714.2
2018-Apr-15 21:28N 36°04' W 005°03'19214.1
2018-Apr-15 07:48N 36°56' W 001°13'515.7
2018-Apr-15 07:29N 36°59' W 001°09'915.8
2018-Apr-15 06:55N 37°04' W 000°59'715.7
2018-Apr-15 06:29N 37°07' W 000°52'815.5
2018-Apr-15 05:57N 37°12' W 000°43'715.4
2018-Apr-15 05:29N 37°16' W 000°35'815.4
2018-Apr-15 04:59N 37°20' W 000°27'715.9
2018-Apr-15 04:30N 37°24' W 000°19'815.9
2018-Apr-15 04:00N 37°28' W 000°11'815.8
2018-Apr-15 03:30N 37°33' W 000°03'15115.6
2018-Apr-14 17:53N 39°11' E 002°23'616.5
2018-Apr-14 17:30N 39°16' E 002°27'816.5
2018-Apr-14 17:00N 39°23' E 002°33'816.3
2018-Apr-14 16:30N 39°30' E 002°37'3 5.5
2018-Apr-14 15:59N 39°33' E 002°38'0 0.0
2018-Apr-14 15:29N 39°33' E 002°38'0 0.0
2018-Apr-14 14:59N 39°33' E 002°38'0 0.0
2018-Apr-14 14:29N 39°33' E 002°38'0 0.0
2018-Apr-14 13:59N 39°33' E 002°38'0 0.0
2018-Apr-14 13:29N 39°33' E 002°38'0 0.0
2018-Apr-14 12:59N 39°33' E 002°38'0 0.0
2018-Apr-14 12:29N 39°33' E 002°38'0 0.0
2018-Apr-14 11:59N 39°33' E 002°38'0 0.0
2018-Apr-14 11:29N 39°33' E 002°38'0 0.0
2018-Apr-14 10:59N 39°33' E 002°38'0 0.0
2018-Apr-14 10:29N 39°33' E 002°38'0 0.0
2018-Apr-14 09:59N 39°33' E 002°38'0 0.0
2018-Apr-14 09:29N 39°33' E 002°38'0 0.0
2018-Apr-14 08:59N 39°33' E 002°38'0 0.0
2018-Apr-14 08:29N 39°33' E 002°38'0 0.0
2018-Apr-14 07:59N 39°33' E 002°38'0 0.0
2018-Apr-14 07:29N 39°33' E 002°38'0 0.0
2018-Apr-14 06:59N 39°33' E 002°38'0 0.0
2018-Apr-14 06:29N 39°33' E 002°38'0 0.0
2018-Apr-14 06:00N 39°33' E 002°38'0 0.0
2018-Apr-14 05:30N 39°33' E 002°38'1 2.7
2018-Apr-14 05:00N 39°32' E 002°39'713.2
2018-Apr-14 04:30N 39°25' E 002°39'611.8
2018-Apr-14 04:00N 39°20' E 002°41'611.3
2018-Apr-14 03:30N 39°14' E 002°44'611.5
2018-Apr-14 02:59N 39°10' E 002°49'511.1
2018-Apr-14 02:30N 39°05' E 002°53'511.1
2018-Apr-14 02:00N 39°03' E 002°59'611.9
2018-Apr-14 01:31N 39°02' E 003°07'611.7
2018-Apr-14 01:00N 39°02' E 003°14'24514.6
2018-Apr-13 08:12N 38°35' E 008°27'315.3
2018-Apr-13 07:59N 38°35' E 008°31'17215.1
2018-Apr-12 20:35N 38°25' E 012°11'3015.6
2018-Apr-12 18:40N 38°24' E 012°49'215.5
2018-Apr-12 18:30N 38°24' E 012°52'815.4
2018-Apr-12 18:00N 38°22' E 013°02'815.4
2018-Apr-12 17:30N 38°20' E 013°12'815.0
2018-Apr-12 17:00N 38°17' E 013°20'815.1
2018-Apr-12 16:30N 38°11' E 013°26'4 8.5
2018-Apr-12 16:00N 38°08' E 013°22'0 0.4
2018-Apr-12 15:28N 38°08' E 013°22'0 0.0
2018-Apr-12 14:58N 38°08' E 013°22'0 0.0
2018-Apr-12 14:28N 38°08' E 013°22'0 0.0
2018-Apr-12 13:58N 38°08' E 013°22'0 0.0
2018-Apr-12 13:28N 38°08' E 013°22'0 0.0
2018-Apr-12 12:58N 38°08' E 013°22'0 0.0
2018-Apr-12 12:28N 38°08' E 013°22'0 0.0
2018-Apr-12 11:58N 38°08' E 013°22'0 0.0
2018-Apr-12 11:28N 38°08' E 013°22'0 0.0
2018-Apr-12 10:58N 38°08' E 013°22'0 0.0
2018-Apr-12 10:28N 38°08' E 013°22'0 0.0
2018-Apr-12 09:58N 38°08' E 013°22'0 0.0
2018-Apr-12 09:28N 38°08' E 013°22'0 0.0
2018-Apr-12 08:58N 38°08' E 013°22'0 0.0
2018-Apr-12 08:28N 38°08' E 013°22'0 0.5
2018-Apr-12 08:01N 38°08' E 013°22'3 5.7
2018-Apr-12 07:31N 38°10' E 013°24'815.4
2018-Apr-12 07:01N 38°17' E 013°20'816.2
2018-Apr-12 06:30N 38°23' E 013°13'816.8
2018-Apr-12 06:00N 38°28' E 013°05'817.0
2018-Apr-12 05:31N 38°34' E 012°57'916.6
2018-Apr-12 05:00N 38°40' E 012°49'916.6
2018-Apr-12 04:28N 38°46' E 012°41'  

Dump ship's entire track history